sensor_id;sensor_type;location;lat;lon;timestamp;pressure;altitude;pressure_sealevel;temperature;humidity
27334;BME280;14817;57.104;-2.094;2023-03-19T00:00:26;99665.69;;;6.19;100.00
27334;BME280;14817;57.104;-2.094;2023-03-19T00:02:53;99665.00;;;6.17;100.00
27334;BME280;14817;57.104;-2.094;2023-03-19T00:05:20;99663.03;;;6.19;100.00
27334;BME280;14817;57.104;-2.094;2023-03-19T00:07:47;99667.81;;;6.16;100.00
27334;BME280;14817;57.104;-2.094;2023-03-19T00:10:14;99663.19;;;6.18;100.00
27334;BME280;14817;57.104;-2.094;2023-03-19T00:12:41;99660.66;;;6.16;100.00
27334;BME280;14817;57.104;-2.094;2023-03-19T00:15:08;99657.31;;;6.14;100.00
27334;BME280;14817;57.104;-2.094;2023-03-19T00:17:41;99660.53;;;6.08;100.00
27334;BME280;14817;57.104;-2.094;2023-03-19T00:20:10;99662.25;;;5.99;100.00
27334;BME280;14817;57.104;-2.094;2023-03-19T00:22:38;99668.41;;;6.00;100.00
27334;BME280;14817;57.104;-2.094;2023-03-19T00:25:06;99674.00;;;5.97;100.00
27334;BME280;14817;57.104;-2.094;2023-03-19T00:27:34;99673.41;;;5.93;100.00
27334;BME280;14817;57.104;-2.094;2023-03-19T00:30:03;99671.34;;;5.87;100.00
27334;BME280;14817;57.104;-2.094;2023-03-19T00:32:30;99669.41;;;5.89;100.00
27334;BME280;14817;57.104;-2.094;2023-03-19T00:34:59;99679.59;;;5.84;100.00
27334;BME280;14817;57.104;-2.094;2023-03-19T00:37:28;99678.06;;;5.81;100.00
27334;BME280;14817;57.104;-2.094;2023-03-19T00:39:55;99682.97;;;5.76;100.00
27334;BME280;14817;57.104;-2.094;2023-03-19T00:42:21;99676.28;;;5.72;100.00
27334;BME280;14817;57.104;-2.094;2023-03-19T00:44:51;99677.28;;;5.61;100.00
27334;BME280;14817;57.104;-2.094;2023-03-19T00:47:19;99683.00;;;5.47;100.00
27334;BME280;14817;57.104;-2.094;2023-03-19T00:49:48;99680.19;;;5.39;100.00
27334;BME280;14817;57.104;-2.094;2023-03-19T00:52:16;99680.88;;;5.31;100.00
27334;BME280;14817;57.104;-2.094;2023-03-19T00:54:43;99680.88;;;5.31;100.00
27334;BME280;14817;57.104;-2.094;2023-03-19T00:57:12;99690.25;;;5.35;100.00
27334;BME280;14817;57.104;-2.094;2023-03-19T00:59:39;99693.59;;;5.37;100.00
27334;BME280;14817;57.104;-2.094;2023-03-19T01:02:06;99696.97;;;5.29;100.00
27334;BME280;14817;57.104;-2.094;2023-03-19T01:04:32;99704.25;;;5.27;100.00
27334;BME280;14817;57.104;-2.094;2023-03-19T01:06:59;99699.91;;;5.17;100.00
27334;BME280;14817;57.104;-2.094;2023-03-19T01:09:26;99710.34;;;5.18;100.00
27334;BME280;14817;57.104;-2.094;2023-03-19T01:11:52;99717.34;;;5.19;100.00
27334;BME280;14817;57.104;-2.094;2023-03-19T01:14:20;99723.63;;;5.18;100.00
27334;BME280;14817;57.104;-2.094;2023-03-19T01:16:47;99718.19;;;5.20;100.00
27334;BME280;14817;57.104;-2.094;2023-03-19T01:19:14;99721.53;;;5.22;100.00
27334;BME280;14817;57.104;-2.094;2023-03-19T01:21:42;99719.59;;;5.24;100.00
27334;BME280;14817;57.104;-2.094;2023-03-19T01:24:15;99723.94;;;5.25;100.00
27334;BME280;14817;57.104;-2.094;2023-03-19T01:26:44;99718.06;;;5.31;100.00
27334;BME280;14817;57.104;-2.094;2023-03-19T01:29:30;99725.47;;;5.27;100.00
27334;BME280;14817;57.104;-2.094;2023-03-19T01:32:05;99732.44;;;5.19;100.00
27334;BME280;14817;57.104;-2.094;2023-03-19T01:35:06;99727.84;;;5.21;100.00
27334;BME280;14817;57.104;-2.094;2023-03-19T01:37:33;99748.38;;;5.19;100.00
27334;BME280;14817;57.104;-2.094;2023-03-19T01:40:00;99758.72;;;5.22;100.00
27334;BME280;14817;57.104;-2.094;2023-03-19T01:42:26;99762.06;;;5.24;100.00
27334;BME280;14817;57.104;-2.094;2023-03-19T01:45:38;99782.75;;;5.30;100.00
27334;BME280;14817;57.104;-2.094;2023-03-19T01:48:33;99785.56;;;5.38;100.00
27334;BME280;14817;57.104;-2.094;2023-03-19T01:51:10;99780.25;;;5.38;100.00
27334;BME280;14817;57.104;-2.094;2023-03-19T01:54:04;99793.97;;;5.34;100.00
27334;BME280;14817;57.104;-2.094;2023-03-19T01:56:48;99791.47;;;5.51;100.00
27334;BME280;14817;57.104;-2.094;2023-03-19T01:59:37;99793.13;;;5.43;100.00
27334;BME280;14817;57.104;-2.094;2023-03-19T02:02:38;99796.47;;;5.55;100.00
27334;BME280;14817;57.104;-2.094;2023-03-19T02:05:21;99795.66;;;5.64;100.00
27334;BME280;14817;57.104;-2.094;2023-03-19T02:07:58;99802.38;;;5.58;100.00
27334;BME280;14817;57.104;-2.094;2023-03-19T02:10:28;99799.28;;;5.43;100.00
27334;BME280;14817;57.104;-2.094;2023-03-19T02:12:54;99789.09;;;5.48;100.00
27334;BME280;14817;57.104;-2.094;2023-03-19T02:15:21;99788.13;;;5.59;100.00
27334;BME280;14817;57.104;-2.094;2023-03-19T02:17:49;99787.13;;;5.60;100.00
27334;BME280;14817;57.104;-2.094;2023-03-19T02:28:17;99791.31;;;5.43;100.00
27334;BME280;14817;57.104;-2.094;2023-03-19T02:30:46;99794.09;;;5.32;100.00
27334;BME280;14817;57.104;-2.094;2023-03-19T02:33:16;99786.09;;;5.22;100.00
27334;BME280;14817;57.104;-2.094;2023-03-19T02:35:48;99786.69;;;5.36;100.00
27334;BME280;14817;57.104;-2.094;2023-03-19T02:38:18;99795.50;;;5.36;100.00
27334;BME280;14817;57.104;-2.094;2023-03-19T02:41:08;99790.56;;;5.22;100.00
27334;BME280;14817;57.104;-2.094;2023-03-19T02:43:36;99790.53;;;5.12;100.00
27334;BME280;14817;57.104;-2.094;2023-03-19T02:46:07;99788.56;;;5.14;100.00
27334;BME280;14817;57.104;-2.094;2023-03-19T02:48:35;99793.88;;;5.04;100.00
27334;BME280;14817;57.104;-2.094;2023-03-19T02:51:03;99790.22;;;5.05;100.00
27334;BME280;14817;57.104;-2.094;2023-03-19T02:53:30;99790.75;;;4.99;100.00
27334;BME280;14817;57.104;-2.094;2023-03-19T02:55:57;99790.50;;;5.02;100.00
27334;BME280;14817;57.104;-2.094;2023-03-19T02:58:24;99795.25;;;4.99;100.00
27334;BME280;14817;57.104;-2.094;2023-03-19T03:00:51;99795.47;;;4.86;100.00
27334;BME280;14817;57.104;-2.094;2023-03-19T03:03:19;99802.72;;;4.84;100.00
27334;BME280;14817;57.104;-2.094;2023-03-19T03:05:46;99803.25;;;4.78;100.00
27334;BME280;14817;57.104;-2.094;2023-03-19T03:08:12;99801.75;;;4.85;100.00
27334;BME280;14817;57.104;-2.094;2023-03-19T03:10:39;99805.31;;;4.95;100.00
27334;BME280;14817;57.104;-2.094;2023-03-19T03:13:06;99811.69;;;4.93;100.00
27334;BME280;14817;57.104;-2.094;2023-03-19T03:15:33;99813.09;;;4.87;100.00
27334;BME280;14817;57.104;-2.094;2023-03-19T03:17:59;99822.41;;;4.81;100.00
27334;BME280;14817;57.104;-2.094;2023-03-19T03:20:26;99816.56;;;4.87;100.00
27334;BME280;14817;57.104;-2.094;2023-03-19T03:22:56;99824.59;;;4.97;100.00
27334;BME280;14817;57.104;-2.094;2023-03-19T03:25:22;99829.84;;;4.87;100.00
27334;BME280;14817;57.104;-2.094;2023-03-19T03:27:49;99835.53;;;4.83;100.00
27334;BME280;14817;57.104;-2.094;2023-03-19T03:30:16;99836.69;;;4.90;100.00
27334;BME280;14817;57.104;-2.094;2023-03-19T03:32:43;99835.09;;;4.78;100.00
27334;BME280;14817;57.104;-2.094;2023-03-19T03:35:10;99845.44;;;4.81;100.00
27334;BME280;14817;57.104;-2.094;2023-03-19T03:37:37;99843.44;;;4.73;100.00
27334;BME280;14817;57.104;-2.094;2023-03-19T03:40:05;99837.31;;;4.73;100.00
27334;BME280;14817;57.104;-2.094;2023-03-19T03:42:35;99846.81;;;4.75;100.00
27334;BME280;14817;57.104;-2.094;2023-03-19T03:45:05;99849.16;;;4.68;100.00
27334;BME280;14817;57.104;-2.094;2023-03-19T03:47:32;99856.84;;;4.72;100.00
27334;BME280;14817;57.104;-2.094;2023-03-19T03:50:00;99858.44;;;4.63;100.00
27334;BME280;14817;57.104;-2.094;2023-03-19T03:52:29;99860.03;;;4.65;100.00
27334;BME280;14817;57.104;-2.094;2023-03-19T03:54:57;99858.13;;;4.56;100.00
27334;BME280;14817;57.104;-2.094;2023-03-19T03:57:25;99860.03;;;4.44;100.00
27334;BME280;14817;57.104;-2.094;2023-03-19T03:59:54;99866.28;;;4.43;100.00
27334;BME280;14817;57.104;-2.094;2023-03-19T04:02:21;99873.53;;;4.41;100.00
27334;BME280;14817;57.104;-2.094;2023-03-19T04:04:48;99870.09;;;4.29;100.00
27334;BME280;14817;57.104;-2.094;2023-03-19T04:07:15;99872.88;;;4.28;100.00
27334;BME280;14817;57.104;-2.094;2023-03-19T04:09:45;99869.91;;;4.21;100.00
27334;BME280;14817;57.104;-2.094;2023-03-19T04:12:13;99880.00;;;4.27;100.00
27334;BME280;14817;57.104;-2.094;2023-03-19T04:14:41;99882.44;;;4.19;100.00
27334;BME280;14817;57.104;-2.094;2023-03-19T04:17:08;99880.28;;;4.13;100.00
27334;BME280;14817;57.104;-2.094;2023-03-19T04:19:36;99892.13;;;4.09;100.00
27334;BME280;14817;57.104;-2.094;2023-03-19T04:22:03;99894.88;;;4.07;100.00
27334;BME280;14817;57.104;-2.094;2023-03-19T04:24:31;99901.03;;;4.08;100.00
27334;BME280;14817;57.104;-2.094;2023-03-19T04:26:59;99913.25;;;3.99;100.00
27334;BME280;14817;57.104;-2.094;2023-03-19T04:29:26;99902.50;;;4.01;100.00
27334;BME280;14817;57.104;-2.094;2023-03-19T04:31:53;99903.97;;;3.94;100.00
27334;BME280;14817;57.104;-2.094;2023-03-19T04:34:20;99911.44;;;4.00;100.00
27334;BME280;14817;57.104;-2.094;2023-03-19T04:36:46;99915.75;;;4.01;100.00
27334;BME280;14817;57.104;-2.094;2023-03-19T04:39:14;99914.44;;;3.95;100.00
27334;BME280;14817;57.104;-2.094;2023-03-19T04:41:41;99916.59;;;4.01;100.00
27334;BME280;14817;57.104;-2.094;2023-03-19T04:44:27;99915.03;;;3.99;100.00
27334;BME280;14817;57.104;-2.094;2023-03-19T04:46:54;99925.63;;;3.99;100.00
27334;BME280;14817;57.104;-2.094;2023-03-19T04:49:22;99913.81;;;4.03;100.00
27334;BME280;14817;57.104;-2.094;2023-03-19T04:51:51;99919.59;;;3.97;100.00
27334;BME280;14817;57.104;-2.094;2023-03-19T04:54:18;99929.25;;;3.98;100.00
27334;BME280;14817;57.104;-2.094;2023-03-19T04:56:46;99929.47;;;3.95;100.00
27334;BME280;14817;57.104;-2.094;2023-03-19T04:59:13;99936.47;;;3.96;100.00
27334;BME280;14817;57.104;-2.094;2023-03-19T05:01:40;99944.31;;;3.86;100.00
27334;BME280;14817;57.104;-2.094;2023-03-19T05:04:10;99937.09;;;3.88;100.00
27334;BME280;14817;57.104;-2.094;2023-03-19T05:06:37;99950.00;;;3.93;100.00
27334;BME280;14817;57.104;-2.094;2023-03-19T05:09:05;99965.13;;;4.02;100.00
27334;BME280;14817;57.104;-2.094;2023-03-19T05:11:33;99969.22;;;4.06;100.00
27334;BME280;14817;57.104;-2.094;2023-03-19T05:14:20;99972.81;;;4.16;100.00
27334;BME280;14817;57.104;-2.094;2023-03-19T05:17:25;99965.91;;;4.25;100.00
27334;BME280;14817;57.104;-2.094;2023-03-19T05:20:27;99980.13;;;4.56;100.00
27334;BME280;14817;57.104;-2.094;2023-03-19T05:23:02;99982.19;;;4.74;100.00
27334;BME280;14817;57.104;-2.094;2023-03-19T05:25:36;99982.16;;;4.85;100.00
27334;BME280;14817;57.104;-2.094;2023-03-19T05:28:06;99981.38;;;4.94;100.00
27334;BME280;14817;57.104;-2.094;2023-03-19T05:30:34;99984.09;;;5.04;100.00
27334;BME280;14817;57.104;-2.094;2023-03-19T05:33:15;99987.78;;;5.13;100.00
27334;BME280;14817;57.104;-2.094;2023-03-19T05:35:44;99984.25;;;5.33;100.00
27334;BME280;14817;57.104;-2.094;2023-03-19T05:38:24;99985.59;;;5.48;100.00
27334;BME280;14817;57.104;-2.094;2023-03-19T05:41:04;99986.88;;;5.54;100.00
27334;BME280;14817;57.104;-2.094;2023-03-19T05:43:51;99997.25;;;5.57;100.00
27334;BME280;14817;57.104;-2.094;2023-03-19T05:46:33;99993.06;;;5.64;100.00
27334;BME280;14817;57.104;-2.094;2023-03-19T05:49:00;99993.06;;;5.64;100.00
27334;BME280;14817;57.104;-2.094;2023-03-19T05:51:27;100002.06;;;5.73;100.00
27334;BME280;14817;57.104;-2.094;2023-03-19T05:53:54;100007.25;;;5.84;100.00
27334;BME280;14817;57.104;-2.094;2023-03-19T05:56:31;100007.72;;;5.89;100.00
27334;BME280;14817;57.104;-2.094;2023-03-19T05:59:17;100014.69;;;5.90;100.00
27334;BME280;14817;57.104;-2.094;2023-03-19T06:01:52;100030.63;;;5.90;100.00
27334;BME280;14817;57.104;-2.094;2023-03-19T06:04:19;100026.78;;;5.95;100.00
27334;BME280;14817;57.104;-2.094;2023-03-19T06:06:46;100023.16;;;5.96;100.00
27334;BME280;14817;57.104;-2.094;2023-03-19T06:09:14;100030.97;;;5.97;100.00
27334;BME280;14817;57.104;-2.094;2023-03-19T06:11:43;100033.50;;;5.99;100.00
27334;BME280;14817;57.104;-2.094;2023-03-19T06:14:39;100035.75;;;6.03;100.00
27334;BME280;14817;57.104;-2.094;2023-03-19T06:17:41;100037.16;;;5.98;100.00
27334;BME280;14817;57.104;-2.094;2023-03-19T06:20:12;100034.91;;;6.03;100.00
27334;BME280;14817;57.104;-2.094;2023-03-19T06:22:40;100034.50;;;5.98;100.00
27334;BME280;14817;57.104;-2.094;2023-03-19T06:25:07;100045.13;;;5.98;100.00
27334;BME280;14817;57.104;-2.094;2023-03-19T06:27:35;100022.53;;;5.92;100.00
27334;BME280;14817;57.104;-2.094;2023-03-19T06:30:25;100029.53;;;5.93;100.00
27334;BME280;14817;57.104;-2.094;2023-03-19T06:32:53;100038.81;;;5.99;100.00
27334;BME280;14817;57.104;-2.094;2023-03-19T06:35:22;100027.22;;;6.00;100.00
27334;BME280;14817;57.104;-2.094;2023-03-19T06:37:50;100040.22;;;6.03;100.00
27334;BME280;14817;57.104;-2.094;2023-03-19T06:40:18;100037.16;;;5.98;100.00
27334;BME280;14817;57.104;-2.094;2023-03-19T06:42:46;100035.56;;;5.95;100.00
27334;BME280;14817;57.104;-2.094;2023-03-19T06:45:15;100033.78;;;5.96;100.00
27334;BME280;14817;57.104;-2.094;2023-03-19T06:47:45;100047.78;;;5.98;100.00
27334;BME280;14817;57.104;-2.094;2023-03-19T06:50:14;100040.72;;;5.87;100.00
27334;BME280;14817;57.104;-2.094;2023-03-19T06:52:42;100061.97;;;5.87;100.00
27334;BME280;14817;57.104;-2.094;2023-03-19T06:55:12;100060.06;;;5.99;100.00
27334;BME280;14817;57.104;-2.094;2023-03-19T06:57:39;100062.53;;;5.90;100.00
27334;BME280;14817;57.104;-2.094;2023-03-19T07:00:06;100070.50;;;5.90;100.00
27334;BME280;14817;57.104;-2.094;2023-03-19T07:02:35;100077.22;;;5.85;100.00
27334;BME280;14817;57.104;-2.094;2023-03-19T07:05:02;100082.34;;;5.77;100.00
27334;BME280;14817;57.104;-2.094;2023-03-19T07:07:29;100084.59;;;5.81;100.00
27334;BME280;14817;57.104;-2.094;2023-03-19T07:09:57;100090.16;;;5.78;100.00
27334;BME280;14817;57.104;-2.094;2023-03-19T07:12:24;100093.28;;;5.83;100.00
27334;BME280;14817;57.104;-2.094;2023-03-19T07:14:53;100091.50;;;5.93;100.00
27334;BME280;14817;57.104;-2.094;2023-03-19T07:17:22;100094.75;;;5.97;100.00
27334;BME280;14817;57.104;-2.094;2023-03-19T07:19:50;100088.66;;;6.06;100.00
27334;BME280;14817;57.104;-2.094;2023-03-19T07:22:17;100096.81;;;6.15;100.00
27334;BME280;14817;57.104;-2.094;2023-03-19T07:24:44;100103.03;;;6.34;100.00
27334;BME280;14817;57.104;-2.094;2023-03-19T07:27:11;100101.66;;;6.50;100.00
27334;BME280;14817;57.104;-2.094;2023-03-19T07:29:38;100107.84;;;7.57;100.00
27334;BME280;14817;57.104;-2.094;2023-03-19T07:32:05;100105.69;;;8.18;100.00
27334;BME280;14817;57.104;-2.094;2023-03-19T07:34:32;100116.38;;;8.73;100.00
27334;BME280;14817;57.104;-2.094;2023-03-19T07:36:59;100119.44;;;9.14;100.00
27334;BME280;14817;57.104;-2.094;2023-03-19T07:39:26;100121.66;;;9.01;100.00
27334;BME280;14817;57.104;-2.094;2023-03-19T07:41:53;100128.22;;;9.25;100.00
27334;BME280;14817;57.104;-2.094;2023-03-19T07:44:22;100124.75;;;9.50;100.00
27334;BME280;14817;57.104;-2.094;2023-03-19T07:46:49;100132.22;;;10.17;100.00
27334;BME280;14817;57.104;-2.094;2023-03-19T07:49:16;100131.28;;;10.00;100.00
27334;BME280;14817;57.104;-2.094;2023-03-19T07:51:42;100135.75;;;9.91;100.00
27334;BME280;14817;57.104;-2.094;2023-03-19T07:54:09;100131.94;;;10.62;100.00
27334;BME280;14817;57.104;-2.094;2023-03-19T07:56:36;100143.31;;;10.56;100.00
27334;BME280;14817;57.104;-2.094;2023-03-19T07:59:03;100136.91;;;10.49;100.00
27334;BME280;14817;57.104;-2.094;2023-03-19T08:01:31;100147.16;;;10.28;100.00
27334;BME280;14817;57.104;-2.094;2023-03-19T08:03:58;100152.03;;;10.32;100.00
27334;BME280;14817;57.104;-2.094;2023-03-19T08:06:24;100154.66;;;10.24;100.00
27334;BME280;14817;57.104;-2.094;2023-03-19T08:08:52;100152.88;;;10.07;100.00
27334;BME280;14817;57.104;-2.094;2023-03-19T08:11:18;100161.66;;;9.65;100.00
27334;BME280;14817;57.104;-2.094;2023-03-19T08:13:45;100167.69;;;10.19;100.00
27334;BME280;14817;57.104;-2.094;2023-03-19T08:16:12;100167.44;;;10.30;100.00
27334;BME280;14817;57.104;-2.094;2023-03-19T08:18:39;100159.19;;;9.97;100.00
27334;BME280;14817;57.104;-2.094;2023-03-19T08:21:06;100167.56;;;10.02;100.00
27334;BME280;14817;57.104;-2.094;2023-03-19T08:23:33;100157.63;;;10.90;100.00
27334;BME280;14817;57.104;-2.094;2023-03-19T08:26:00;100176.50;;;10.72;100.00
27334;BME280;14817;57.104;-2.094;2023-03-19T08:28:27;100186.69;;;9.81;100.00
27334;BME280;14817;57.104;-2.094;2023-03-19T08:30:54;100168.06;;;9.54;100.00
27334;BME280;14817;57.104;-2.094;2023-03-19T08:33:21;100183.09;;;9.55;100.00
27334;BME280;14817;57.104;-2.094;2023-03-19T08:35:48;100181.34;;;9.28;100.00
27334;BME280;14817;57.104;-2.094;2023-03-19T08:38:16;100207.63;;;8.59;100.00
27334;BME280;14817;57.104;-2.094;2023-03-19T08:40:42;100208.63;;;8.58;100.00
27334;BME280;14817;57.104;-2.094;2023-03-19T08:43:09;100202.88;;;8.81;100.00
27334;BME280;14817;57.104;-2.094;2023-03-19T08:45:36;100220.19;;;9.04;100.00
27334;BME280;14817;57.104;-2.094;2023-03-19T08:48:03;100219.00;;;9.34;100.00
27334;BME280;14817;57.104;-2.094;2023-03-19T08:50:29;100228.31;;;9.84;100.00
27334;BME280;14817;57.104;-2.094;2023-03-19T08:52:56;100243.94;;;10.41;100.00
27334;BME280;14817;57.104;-2.094;2023-03-19T08:55:23;100235.28;;;9.41;100.00
27334;BME280;14817;57.104;-2.094;2023-03-19T08:57:50;100216.09;;;9.64;100.00
27334;BME280;14817;57.104;-2.094;2023-03-19T09:00:17;100222.44;;;10.07;100.00
27334;BME280;14817;57.104;-2.094;2023-03-19T09:02:44;100220.19;;;10.38;100.00
27334;BME280;14817;57.104;-2.094;2023-03-19T09:05:11;100234.53;;;10.37;100.00
27334;BME280;14817;57.104;-2.094;2023-03-19T09:07:38;100232.88;;;10.36;100.00
27334;BME280;14817;57.104;-2.094;2023-03-19T09:10:05;100237.59;;;10.42;100.00
27334;BME280;14817;57.104;-2.094;2023-03-19T09:12:32;100235.50;;;10.88;100.00
27334;BME280;14817;57.104;-2.094;2023-03-19T09:14:59;100238.28;;;10.26;100.00
27334;BME280;14817;57.104;-2.094;2023-03-19T09:17:25;100257.03;;;9.64;100.00
27334;BME280;14817;57.104;-2.094;2023-03-19T09:19:52;100245.03;;;9.86;100.00
27334;BME280;14817;57.104;-2.094;2023-03-19T09:22:19;100261.06;;;10.48;100.00
27334;BME280;14817;57.104;-2.094;2023-03-19T09:24:46;100251.38;;;9.31;100.00
27334;BME280;14817;57.104;-2.094;2023-03-19T09:27:12;100257.56;;;9.32;100.00
27334;BME280;14817;57.104;-2.094;2023-03-19T09:29:39;100255.44;;;9.71;100.00
27334;BME280;14817;57.104;-2.094;2023-03-19T09:32:07;100265.66;;;9.40;100.00
27334;BME280;14817;57.104;-2.094;2023-03-19T09:34:33;100271.19;;;9.56;100.00
27334;BME280;14817;57.104;-2.094;2023-03-19T09:37:00;100280.28;;;9.18;100.00
27334;BME280;14817;57.104;-2.094;2023-03-19T09:39:27;100288.59;;;8.87;100.00
27334;BME280;14817;57.104;-2.094;2023-03-19T09:44:35;100296.47;;;9.16;100.00
27334;BME280;14817;57.104;-2.094;2023-03-19T09:47:39;100303.78;;;8.87;100.00
27334;BME280;14817;57.104;-2.094;2023-03-19T09:50:11;100320.16;;;8.64;100.00
27334;BME280;14817;57.104;-2.094;2023-03-19T09:53:00;100333.91;;;8.59;100.00
27334;BME280;14817;57.104;-2.094;2023-03-19T09:57:56;100340.13;;;8.31;100.00
27334;BME280;14817;57.104;-2.094;2023-03-19T10:00:27;100346.75;;;8.36;100.00
27334;BME280;14817;57.104;-2.094;2023-03-19T10:03:02;100352.50;;;8.51;100.00
27334;BME280;14817;57.104;-2.094;2023-03-19T10:05:44;100349.13;;;8.49;100.00
27334;BME280;14817;57.104;-2.094;2023-03-19T10:11:13;100354.94;;;8.82;100.00
27334;BME280;14817;57.104;-2.094;2023-03-19T10:16:50;100342.72;;;9.17;100.00
27334;BME280;14817;57.104;-2.094;2023-03-19T10:19:22;100339.31;;;9.25;100.00
27334;BME280;14817;57.104;-2.094;2023-03-19T10:21:54;100341.66;;;9.55;100.00
27334;BME280;14817;57.104;-2.094;2023-03-19T10:24:41;100345.72;;;9.04;100.00
27334;BME280;14817;57.104;-2.094;2023-03-19T10:27:16;100333.25;;;9.50;100.00
27334;BME280;14817;57.104;-2.094;2023-03-19T10:29:43;100328.63;;;9.52;100.00
27334;BME280;14817;57.104;-2.094;2023-03-19T10:32:27;100328.50;;;9.26;100.00
27334;BME280;14817;57.104;-2.094;2023-03-19T10:34:57;100326.63;;;9.54;100.00
27334;BME280;14817;57.104;-2.094;2023-03-19T10:37:27;100331.41;;;9.96;100.00
27334;BME280;14817;57.104;-2.094;2023-03-19T10:39:57;100323.97;;;10.08;100.00
27334;BME280;14817;57.104;-2.094;2023-03-19T10:45:26;100313.63;;;10.13;100.00
27334;BME280;14817;57.104;-2.094;2023-03-19T10:47:54;100307.78;;;10.10;100.00
27334;BME280;14817;57.104;-2.094;2023-03-19T10:50:36;100310.34;;;10.63;100.00
27334;BME280;14817;57.104;-2.094;2023-03-19T10:55:55;100310.88;;;10.41;100.00
27334;BME280;14817;57.104;-2.094;2023-03-19T10:58:27;100311.13;;;9.94;100.00
27334;BME280;14817;57.104;-2.094;2023-03-19T11:01:03;100303.72;;;10.06;100.00
27334;BME280;14817;57.104;-2.094;2023-03-19T11:08:34;100306.47;;;9.78;100.00
27334;BME280;14817;57.104;-2.094;2023-03-19T11:11:02;100312.44;;;9.90;100.00
27334;BME280;14817;57.104;-2.094;2023-03-19T11:13:29;100304.94;;;10.29;100.00
27334;BME280;14817;57.104;-2.094;2023-03-19T11:15:59;100302.09;;;10.13;100.00
27334;BME280;14817;57.104;-2.094;2023-03-19T11:18:29;100296.84;;;9.85;100.00
27334;BME280;14817;57.104;-2.094;2023-03-19T11:21:06;100307.84;;;10.00;100.00
27334;BME280;14817;57.104;-2.094;2023-03-19T11:23:39;100317.31;;;9.58;100.00
27334;BME280;14817;57.104;-2.094;2023-03-19T11:26:07;100325.56;;;9.65;100.00
27334;BME280;14817;57.104;-2.094;2023-03-19T11:28:36;100326.81;;;9.71;100.00
27334;BME280;14817;57.104;-2.094;2023-03-19T11:33:56;100331.38;;;10.50;100.00
27334;BME280;14817;57.104;-2.094;2023-03-19T11:36:43;100336.59;;;10.16;100.00
27334;BME280;14817;57.104;-2.094;2023-03-19T11:39:26;100328.59;;;10.24;100.00
27334;BME280;14817;57.104;-2.094;2023-03-19T11:44:38;100334.69;;;9.90;100.00
27334;BME280;14817;57.104;-2.094;2023-03-19T11:47:15;100342.75;;;9.63;100.00
27334;BME280;14817;57.104;-2.094;2023-03-19T11:52:52;100342.22;;;10.13;100.00
27334;BME280;14817;57.104;-2.094;2023-03-19T11:55:40;100341.41;;;10.30;100.00
27334;BME280;14817;57.104;-2.094;2023-03-19T12:12:24;100345.34;;;10.26;100.00
27334;BME280;14817;57.104;-2.094;2023-03-19T12:14:59;100340.34;;;10.67;100.00
27334;BME280;14817;57.104;-2.094;2023-03-19T12:17:57;100329.44;;;10.60;100.00
27334;BME280;14817;57.104;-2.094;2023-03-19T12:29:21;100330.00;;;10.72;100.00
27334;BME280;14817;57.104;-2.094;2023-03-19T12:34:40;100323.00;;;10.09;100.00
27334;BME280;14817;57.104;-2.094;2023-03-19T12:40:30;100326.06;;;9.96;100.00
27334;BME280;14817;57.104;-2.094;2023-03-19T12:43:01;100334.06;;;10.32;100.00
27334;BME280;14817;57.104;-2.094;2023-03-19T12:45:30;100327.66;;;10.77;100.00
27334;BME280;14817;57.104;-2.094;2023-03-19T12:48:09;100339.13;;;10.35;100.00
27334;BME280;14817;57.104;-2.094;2023-03-19T12:50:40;100339.41;;;10.32;100.00
27334;BME280;14817;57.104;-2.094;2023-03-19T12:55:56;100342.63;;;10.00;100.00
27334;BME280;14817;57.104;-2.094;2023-03-19T12:58:36;100346.00;;;9.84;100.00
27334;BME280;14817;57.104;-2.094;2023-03-19T13:01:15;100345.53;;;9.71;100.00
27334;BME280;14817;57.104;-2.094;2023-03-19T13:04:07;100340.78;;;9.82;100.00
27334;BME280;14817;57.104;-2.094;2023-03-19T13:06:42;100350.56;;;9.74;100.00
27334;BME280;14817;57.104;-2.094;2023-03-19T13:12:06;100348.81;;;9.82;100.00
27334;BME280;14817;57.104;-2.094;2023-03-19T13:14:55;100348.56;;;9.76;100.00
27334;BME280;14817;57.104;-2.094;2023-03-19T13:18:42;100349.13;;;9.97;100.00
27334;BME280;14817;57.104;-2.094;2023-03-19T13:23:05;100354.16;;;10.18;100.00
27334;BME280;14817;57.104;-2.094;2023-03-19T13:25:40;100358.22;;;10.05;100.00
27334;BME280;14817;57.104;-2.094;2023-03-19T13:28:15;100358.91;;;9.89;100.00
27334;BME280;14817;57.104;-2.094;2023-03-19T13:31:05;100360.06;;;9.86;100.00
27334;BME280;14817;57.104;-2.094;2023-03-19T13:33:33;100361.19;;;10.01;100.00
27334;BME280;14817;57.104;-2.094;2023-03-19T13:36:03;100372.06;;;9.82;100.00
27334;BME280;14817;57.104;-2.094;2023-03-19T13:38:40;100369.19;;;9.66;100.00
27334;BME280;14817;57.104;-2.094;2023-03-19T13:46:44;100384.75;;;9.25;100.00
27334;BME280;14817;57.104;-2.094;2023-03-19T13:49:29;100383.25;;;9.12;100.00
27334;BME280;14817;57.104;-2.094;2023-03-19T13:54:43;100378.72;;;8.75;100.00
27334;BME280;14817;57.104;-2.094;2023-03-19T13:59:45;100392.06;;;8.66;100.00
27334;BME280;14817;57.104;-2.094;2023-03-19T14:07:22;100403.47;;;8.38;100.00
27334;BME280;14817;57.104;-2.094;2023-03-19T14:12:32;100397.31;;;8.48;100.00
27334;BME280;14817;57.104;-2.094;2023-03-19T14:15:13;100396.44;;;8.28;100.00
27334;BME280;14817;57.104;-2.094;2023-03-19T14:20:27;100394.31;;;8.31;100.00
27334;BME280;14817;57.104;-2.094;2023-03-19T14:25:54;100385.22;;;8.24;100.00
27334;BME280;14817;57.104;-2.094;2023-03-19T14:28:28;100389.41;;;8.17;100.00
27334;BME280;14817;57.104;-2.094;2023-03-19T14:30:58;100385.22;;;8.05;100.00
27334;BME280;14817;57.104;-2.094;2023-03-19T14:33:33;100390.53;;;8.05;100.00
27334;BME280;14817;57.104;-2.094;2023-03-19T14:36:03;100403.59;;;7.98;100.00
27334;BME280;14817;57.104;-2.094;2023-03-19T14:38:37;100401.03;;;7.77;100.00
27334;BME280;14817;57.104;-2.094;2023-03-19T14:41:13;100396.81;;;7.84;100.00
27334;BME280;14817;57.104;-2.094;2023-03-19T14:46:52;100399.38;;;7.86;100.00